createdAt,value
2019-02-04T00:02:04.386Z,73.90
2019-02-04T00:04:25.581Z,73.70
2019-02-04T00:06:46.864Z,73.80
2019-02-04T00:09:08.099Z,73.60
2019-02-04T00:11:30.490Z,73.60
2019-02-04T00:13:51.685Z,73.60
2019-02-04T00:16:12.885Z,73.50
2019-02-04T00:18:34.073Z,73.50
2019-02-04T00:20:55.685Z,73.70
2019-02-04T00:23:17.108Z,73.70
2019-02-04T00:25:38.404Z,73.80
2019-02-04T00:27:59.593Z,74.00
2019-02-04T00:30:25.258Z,74.10
2019-02-04T00:32:46.532Z,73.60
2019-02-04T00:35:07.753Z,73.50
2019-02-04T00:37:28.937Z,73.60
2019-02-04T00:39:50.132Z,73.80
2019-02-04T00:42:11.346Z,73.60
2019-02-04T00:44:32.579Z,73.60
2019-02-04T00:46:53.893Z,73.50
2019-02-04T00:49:15.094Z,73.30
2019-02-04T00:51:36.297Z,73.40
2019-02-04T00:53:57.493Z,73.50
2019-02-04T00:56:18.909Z,73.70
2019-02-04T00:58:40.105Z,74.00
2019-02-04T01:01:01.922Z,74.00
2019-02-04T01:03:24.340Z,74.10
2019-02-04T01:05:45.537Z,74.10
2019-02-04T01:08:06.728Z,74.00
2019-02-04T01:10:29.340Z,73.90
2019-02-04T01:12:50.652Z,74.20
2019-02-04T01:15:11.881Z,74.30
2019-02-04T01:17:33.060Z,74.60
2019-02-04T01:19:54.489Z,74.80
2019-02-04T01:22:15.714Z,74.80
2019-02-04T01:24:36.914Z,74.90
2019-02-04T01:26:58.123Z,75.30
2019-02-04T01:29:19.319Z,75.60
2019-02-04T01:31:40.521Z,75.40
2019-02-04T01:34:01.746Z,75.70
2019-02-04T01:36:23.086Z,75.60
2019-02-04T01:38:44.774Z,75.70
2019-02-04T01:41:06.395Z,76.00
2019-02-04T01:43:27.677Z,76.20
2019-02-04T01:45:48.886Z,76.20
2019-02-04T01:48:10.086Z,76.60
2019-02-04T01:50:31.395Z,76.60
2019-02-04T01:52:52.895Z,76.80
2019-02-04T01:55:14.378Z,77.30
2019-02-04T01:57:35.598Z,77.50
2019-02-04T01:59:56.906Z,77.60
2019-02-04T02:02:18.226Z,78.00
2019-02-04T02:04:39.512Z,78.10
2019-02-04T02:07:00.744Z,78.10
2019-02-04T02:09:23.260Z,78.30
2019-02-04T02:11:44.495Z,78.50
2019-02-04T02:14:05.681Z,78.70
2019-02-04T02:16:26.908Z,79.70
2019-02-04T02:18:49.606Z,79.20
2019-02-04T02:21:10.849Z,79.60
2019-02-04T02:23:32.060Z,79.80
2019-02-04T02:25:53.268Z,79.70
2019-02-04T02:28:15.505Z,80.10
2019-02-04T02:30:37.036Z,80.30
2019-02-04T02:32:58.355Z,81.00
2019-02-04T02:35:19.659Z,81.70
2019-02-04T02:37:42.082Z,82.30
2019-02-04T02:40:13.251Z,82.60
2019-02-04T02:42:34.570Z,82.60
2019-02-04T02:44:55.757Z,82.60
2019-02-04T02:47:16.983Z,82.50
2019-02-04T02:49:38.190Z,82.50
2019-02-04T02:51:59.413Z,82.20
2019-02-04T02:54:20.920Z,82.10
2019-02-04T02:56:42.539Z,82.20
2019-02-04T02:59:03.730Z,82.00
2019-02-04T03:01:24.953Z,82.00
2019-02-04T03:03:46.140Z,81.70
2019-02-04T03:06:08.914Z,81.70
2019-02-04T03:08:30.132Z,82.10
2019-02-04T03:10:51.435Z,82.10
2019-02-04T03:13:15.979Z,82.60
2019-02-04T03:15:40.508Z,83.10
2019-02-04T03:18:02.128Z,83.50
2019-02-04T03:20:24.417Z,83.80
2019-02-04T03:22:45.640Z,84.20
2019-02-04T03:25:09.338Z,83.60
2019-02-04T03:27:31.042Z,83.50
2019-02-04T03:29:52.934Z,83.40
2019-02-04T03:32:14.144Z,83.40
2019-02-04T03:34:35.438Z,83.90
2019-02-04T03:36:56.674Z,84.30
2019-02-04T03:39:17.886Z,85.00
2019-02-04T03:41:39.210Z,85.00
2019-02-04T03:44:00.688Z,84.20
2019-02-04T03:46:21.997Z,84.30
2019-02-04T03:48:43.225Z,84.60
2019-02-04T03:51:04.681Z,85.30
2019-02-04T03:53:25.900Z,85.40
2019-02-04T03:55:47.107Z,85.60
2019-02-04T03:58:08.728Z,85.70
2019-02-04T04:00:32.435Z,85.60
2019-02-04T04:02:53.655Z,85.70
2019-02-04T04:05:14.950Z,85.70
2019-02-04T04:07:36.765Z,86.10
2019-02-04T04:09:57.969Z,86.10
2019-02-04T04:12:19.200Z,86.10
2019-02-04T04:14:40.502Z,86.20
2019-02-04T04:17:01.699Z,86.30
2019-02-04T04:19:23.058Z,86.40
2019-02-04T04:21:44.347Z,86.60
2019-02-04T04:24:05.796Z,86.80
2019-02-04T04:26:27.119Z,86.90
2019-02-04T04:28:48.437Z,86.80
2019-02-04T04:31:09.692Z,86.70
2019-02-04T04:33:31.906Z,86.40
2019-02-04T04:35:53.105Z,86.70
2019-02-04T04:38:14.319Z,86.90
2019-02-04T04:40:35.505Z,87.00
2019-02-04T04:42:56.722Z,87.50
2019-02-04T04:45:24.182Z,88.10
2019-02-04T04:47:45.794Z,87.80
2019-02-04T04:50:07.703Z,87.70
2019-02-04T04:52:28.927Z,88.10
2019-02-04T04:54:50.123Z,88.50
2019-02-04T04:57:11.346Z,88.30
2019-02-04T04:59:32.651Z,88.40
2019-02-04T05:01:53.964Z,88.30
2019-02-04T05:04:15.280Z,87.80
2019-02-04T05:06:36.500Z,87.90
2019-02-04T05:08:57.705Z,88.40
2019-02-04T05:11:19.116Z,88.00
2019-02-04T05:13:40.432Z,88.30
2019-02-04T05:16:01.726Z,88.80
2019-02-04T05:18:23.344Z,88.70
2019-02-04T05:20:44.549Z,88.70
2019-02-04T05:23:05.765Z,88.40
2019-02-04T05:25:27.381Z,88.70
2019-02-04T05:27:49.107Z,89.20
2019-02-04T05:30:13.494Z,89.10
2019-02-04T05:32:34.801Z,89.30
2019-02-04T05:34:57.519Z,89.30
2019-02-04T05:37:19.263Z,89.40
2019-02-04T05:39:40.549Z,89.90
2019-02-04T05:42:01.745Z,89.80
2019-02-04T05:44:22.965Z,89.70
2019-02-04T05:46:44.174Z,89.30
2019-02-04T05:49:05.477Z,89.20
2019-02-04T05:51:26.676Z,88.60
2019-02-04T05:53:47.896Z,89.60
2019-02-04T05:56:09.083Z,89.30
2019-02-04T05:58:32.954Z,89.80
2019-02-04T06:00:53.509Z,89.40
2019-02-04T06:03:15.237Z,89.20
2019-02-04T06:05:36.846Z,89.10
2019-02-04T06:07:58.045Z,89.00
2019-02-04T06:10:19.271Z,89.20
2019-02-04T06:12:40.485Z,89.20
2019-02-04T06:15:04.205Z,89.30
2019-02-04T06:17:25.431Z,89.30
2019-02-04T06:19:46.661Z,89.50
2019-02-04T06:22:07.898Z,89.30
2019-02-04T06:24:29.123Z,89.60
2019-02-04T06:26:50.351Z,89.80
2019-02-04T06:29:11.702Z,89.50
2019-02-04T06:31:32.897Z,89.40
2019-02-04T06:33:54.111Z,89.80
2019-02-04T06:36:15.310Z,90.00
2019-02-04T06:38:36.520Z,90.20
2019-02-04T06:40:57.733Z,90.30
2019-02-04T06:43:19.273Z,90.40
2019-02-04T06:45:41.177Z,90.40
2019-02-04T06:48:03.098Z,90.30
2019-02-04T06:50:24.410Z,90.30
2019-02-04T06:52:45.731Z,90.30
2019-02-04T06:55:13.011Z,90.20
2019-02-04T06:57:34.530Z,90.20
2019-02-04T06:59:55.835Z,90.20
2019-02-04T07:02:17.042Z,90.20
2019-02-04T07:04:38.246Z,90.20
2019-02-04T07:06:59.752Z,90.10
2019-02-04T07:09:20.960Z,90.10
2019-02-04T07:11:42.407Z,90.10
2019-02-04T07:14:03.677Z,90.20
2019-02-04T07:16:25.055Z,90.20
2019-02-04T07:18:46.332Z,90.10
2019-02-04T07:21:07.574Z,90.20
2019-02-04T07:23:28.812Z,90.20
2019-02-04T07:25:50.713Z,90.30
2019-02-04T07:28:12.129Z,90.30
2019-02-04T07:30:33.581Z,90.40
2019-02-04T07:32:54.811Z,90.50
2019-02-04T07:35:17.425Z,90.40
2019-02-04T07:37:38.641Z,90.20
2019-02-04T07:39:59.838Z,90.50
2019-02-04T07:42:21.045Z,90.40
2019-02-04T07:44:42.236Z,90.20
2019-02-04T07:47:03.667Z,90.00
2019-02-04T07:49:34.714Z,89.80
2019-02-04T07:51:50.408Z,89.20
2019-02-04T07:54:11.115Z,90.10
2019-02-04T07:56:32.737Z,88.90
2019-02-04T07:58:54.006Z,88.30
2019-02-04T08:01:15.250Z,88.10
2019-02-04T08:03:37.708Z,87.80
2019-02-04T08:05:59.025Z,87.70
2019-02-04T08:08:20.942Z,87.50
2019-02-04T08:10:42.151Z,87.10
2019-02-04T08:13:03.617Z,86.80
2019-02-04T08:15:27.924Z,86.30
2019-02-04T08:17:49.135Z,86.00
2019-02-04T08:20:10.338Z,85.70
2019-02-04T08:22:31.613Z,85.20
2019-02-04T08:24:53.242Z,85.00
2019-02-04T08:27:27.887Z,85.20
2019-02-04T08:29:49.165Z,85.20
2019-02-04T08:32:10.470Z,85.00
2019-02-04T08:34:31.675Z,84.80
2019-02-04T08:36:53.294Z,84.00
2019-02-04T08:39:14.636Z,83.90
2019-02-04T08:41:36.345Z,82.90
2019-02-04T08:43:57.858Z,82.90
2019-02-04T08:46:19.462Z,83.00
2019-02-04T08:48:40.773Z,82.70
2019-02-04T08:51:01.998Z,82.40
2019-02-04T08:53:23.451Z,82.40
2019-02-04T08:55:44.758Z,81.20
2019-02-04T08:58:06.177Z,81.70
2019-02-04T09:00:27.650Z,81.70
2019-02-04T09:02:48.949Z,80.60
2019-02-04T09:05:12.546Z,80.50
2019-02-04T09:07:33.854Z,79.90
2019-02-04T09:09:55.048Z,79.70
2019-02-04T09:12:16.399Z,79.80
2019-02-04T09:14:37.990Z,79.70
2019-02-04T09:16:59.331Z,79.90
2019-02-04T09:19:20.983Z,78.40
2019-02-04T09:21:42.242Z,77.40
2019-02-04T09:24:03.683Z,77.10
2019-02-04T09:26:25.269Z,76.10
2019-02-04T09:28:46.589Z,77.00
2019-02-04T09:31:08.477Z,77.30
2019-02-04T09:33:30.058Z,76.60
2019-02-04T09:35:51.255Z,76.20
2019-02-04T09:38:12.569Z,76.30
2019-02-04T09:40:39.311Z,76.40
2019-02-04T09:43:00.534Z,75.60
2019-02-04T09:45:24.344Z,74.90
2019-02-04T09:47:44.951Z,74.40
2019-02-04T09:50:21.206Z,74.00
2019-02-04T09:52:33.470Z,74.30
2019-02-04T09:54:54.697Z,74.60
2019-02-04T09:57:15.885Z,73.90
2019-02-04T09:59:37.097Z,73.10
2019-02-04T10:01:58.299Z,72.70
2019-02-04T10:04:19.520Z,71.40
2019-02-04T10:06:40.701Z,71.50
2019-02-04T10:09:05.535Z,71.60
2019-02-04T10:11:26.842Z,71.70
2019-02-04T10:13:48.159Z,71.60
2019-02-04T10:16:11.596Z,71.10
2019-02-04T10:18:32.442Z,71.00
2019-02-04T10:20:53.710Z,70.70
2019-02-04T10:23:14.964Z,70.10
2019-02-04T10:25:42.925Z,70.00
2019-02-04T10:28:05.560Z,69.20
2019-02-04T10:30:27.078Z,69.30
2019-02-04T10:32:48.379Z,67.60
2019-02-04T10:35:16.956Z,67.70
2019-02-04T10:37:33.305Z,67.60
2019-02-04T10:39:54.563Z,67.10
2019-02-04T10:42:16.228Z,67.10
2019-02-04T10:44:37.843Z,66.40
2019-02-04T10:46:59.137Z,66.20
2019-02-04T10:49:20.417Z,65.70
2019-02-04T10:51:41.718Z,65.30
2019-02-04T10:54:03.036Z,64.00
2019-02-04T10:56:24.662Z,62.90
2019-02-04T10:58:45.883Z,61.50
2019-02-04T11:01:09.107Z,61.20
2019-02-04T11:03:30.441Z,61.30
2019-02-04T11:05:51.712Z,60.30
2019-02-04T11:08:13.069Z,60.60
2019-02-04T11:10:35.549Z,59.10
2019-02-04T11:12:56.815Z,59.50
2019-02-04T11:15:18.149Z,58.70
2019-02-04T11:17:39.469Z,58.40
2019-02-04T11:20:00.733Z,58.30
2019-02-04T11:22:22.064Z,58.00
2019-02-04T11:24:43.846Z,57.10
2019-02-04T11:27:05.428Z,55.00
2019-02-04T11:29:26.687Z,53.70
2019-02-04T11:31:47.946Z,53.10
2019-02-04T11:34:09.233Z,52.70
2019-02-04T11:36:30.551Z,51.70
2019-02-04T11:38:51.865Z,52.30
2019-02-04T11:41:13.206Z,52.40
2019-02-04T11:43:34.649Z,51.70
2019-02-04T11:45:55.919Z,51.80
2019-02-04T11:48:17.488Z,51.50
2019-02-04T11:50:38.807Z,51.50
2019-02-04T11:53:00.662Z,51.60
2019-02-04T11:55:22.013Z,51.30
2019-02-04T11:57:43.250Z,51.50
2019-02-04T12:00:08.279Z,51.20
2019-02-04T12:02:34.506Z,50.50
2019-02-04T12:04:52.667Z,49.90
2019-02-04T12:07:13.859Z,49.70
2019-02-04T12:09:35.161Z,49.50
2019-02-04T12:11:56.811Z,48.60
2019-02-04T12:14:18.132Z,48.30
2019-02-04T12:16:39.363Z,47.80
2019-02-04T12:19:01.554Z,47.60
2019-02-04T12:21:22.763Z,47.70
2019-02-04T12:23:43.960Z,46.60
2019-02-04T12:26:05.169Z,46.70
2019-02-04T12:28:26.397Z,46.30
2019-02-04T12:30:49.631Z,45.70
2019-02-04T12:33:15.679Z,45.40
2019-02-04T12:35:37.813Z,45.60
2019-02-04T12:37:59.461Z,46.10
2019-02-04T12:40:20.779Z,46.10
2019-02-04T12:42:42.399Z,46.10
2019-02-04T12:45:07.842Z,45.60
2019-02-04T12:47:29.318Z,45.60
2019-02-04T12:49:50.657Z,46.10
2019-02-04T12:52:11.950Z,47.60
2019-02-04T12:54:33.663Z,47.40
2019-02-04T12:56:55.063Z,47.50
2019-02-04T12:59:16.563Z,47.10
2019-02-04T13:01:37.898Z,46.90
2019-02-04T13:03:59.205Z,47.90
2019-02-04T13:06:20.836Z,46.80
2019-02-04T13:08:42.146Z,46.60
2019-02-04T13:11:03.419Z,47.00
2019-02-04T13:13:24.744Z,46.50
2019-02-04T13:15:47.660Z,44.50
2019-02-04T13:18:08.997Z,44.80
2019-02-04T13:20:30.528Z,46.10
2019-02-04T13:22:54.463Z,47.70
2019-02-04T13:25:28.346Z,47.70
2019-02-04T13:27:51.820Z,48.60
2019-02-04T13:30:16.466Z,48.50
2019-02-04T13:32:37.940Z,49.30
2019-02-04T13:35:17.031Z,49.80
2019-02-04T13:38:05.086Z,49.60
2019-02-04T13:40:09.906Z,49.40
2019-02-04T13:42:31.299Z,49.00
2019-02-04T13:44:55.848Z,49.30
2019-02-04T13:47:17.158Z,49.20
2019-02-04T13:49:38.378Z,50.00
2019-02-04T13:51:59.786Z,50.40
2019-02-04T13:54:21.028Z,50.40
2019-02-04T13:56:42.293Z,50.50
2019-02-04T13:59:03.610Z,50.40
2019-02-04T14:01:24.898Z,50.20
2019-02-04T14:03:48.409Z,50.20
2019-02-04T14:06:09.805Z,51.30
2019-02-04T14:08:31.142Z,51.20
2019-02-04T14:10:52.462Z,51.40
2019-02-04T14:13:14.413Z,51.90
2019-02-04T14:15:36.465Z,51.40
2019-02-04T14:17:57.820Z,51.70
2019-02-04T14:20:22.373Z,52.00
2019-02-04T14:22:43.738Z,51.70
2019-02-04T14:25:06.551Z,51.30
2019-02-04T14:27:27.815Z,51.70
2019-02-04T14:29:49.257Z,51.50
2019-02-04T14:32:10.465Z,51.20
2019-02-04T14:34:32.011Z,51.30
2019-02-04T14:36:53.211Z,51.60
2019-02-04T14:39:14.412Z,51.60
2019-02-04T14:41:42.729Z,51.30
2019-02-04T14:44:05.093Z,51.10
2019-02-04T14:46:30.471Z,51.30
2019-02-04T14:49:31.110Z,50.30
2019-02-04T14:52:21.051Z,50.40
2019-02-04T14:54:55.424Z,50.60
2019-02-04T14:57:29.853Z,50.20
2019-02-04T14:59:54.135Z,50.30
2019-02-04T15:02:28.269Z,50.10
2019-02-04T15:05:02.395Z,50.10
2019-02-04T15:07:45.811Z,50.60
2019-02-04T15:13:10.315Z,51.20
2019-02-04T15:15:57.191Z,50.90
2019-02-04T15:18:51.805Z,50.70
2019-02-04T15:21:20.243Z,50.50
2019-02-04T15:23:48.603Z,51.20
2019-02-04T15:26:25.733Z,52.00
2019-02-04T15:29:09.191Z,52.10
2019-02-04T15:31:37.112Z,52.50
2019-02-04T15:34:14.577Z,52.60
2019-02-04T15:36:46.419Z,52.70
2019-02-04T15:39:11.792Z,52.80
2019-02-04T15:41:48.702Z,53.10
2019-02-04T15:44:26.260Z,53.40
2019-02-04T15:46:57.231Z,53.60
2019-02-04T15:49:50.170Z,53.80
2019-02-04T15:52:02.030Z,54.30
2019-02-04T15:54:23.236Z,54.70
2019-02-04T15:56:44.558Z,54.90
2019-02-04T15:59:06.111Z,55.30
2019-02-04T16:01:27.653Z,56.20
2019-02-04T16:03:49.064Z,56.00
2019-02-04T16:06:10.380Z,56.20
2019-02-04T16:08:31.714Z,56.40
2019-02-04T16:10:52.966Z,56.60
2019-02-04T16:13:14.706Z,56.80
2019-02-04T16:15:36.427Z,56.80
2019-02-04T16:17:57.707Z,56.90
2019-02-04T16:20:22.968Z,57.00
2019-02-04T16:22:44.341Z,57.40
2019-02-04T16:25:08.962Z,57.50
2019-02-04T16:27:30.290Z,57.40
2019-02-04T16:29:51.535Z,57.80
2019-02-04T16:32:12.787Z,57.40
2019-02-04T16:34:34.088Z,57.70
2019-02-04T16:36:55.338Z,57.80
2019-02-04T16:39:16.615Z,58.10
2019-02-04T16:41:37.948Z,58.50
2019-02-04T16:43:59.237Z,58.60
2019-02-04T16:46:20.473Z,58.60
2019-02-04T16:48:41.778Z,59.00
2019-02-04T16:51:11.298Z,59.20
2019-02-04T16:53:26.474Z,59.40
2019-02-04T16:55:48.114Z,59.80
2019-02-04T16:58:09.370Z,60.40
2019-02-04T17:00:30.833Z,60.60
2019-02-04T17:02:52.166Z,61.20
2019-02-04T17:05:14.815Z,61.50
2019-02-04T17:07:36.467Z,61.60
2019-02-04T17:09:57.855Z,61.80
2019-02-04T17:12:32.975Z,61.90
2019-02-04T17:14:54.339Z,62.00
2019-02-04T17:17:15.727Z,62.70
2019-02-04T17:19:36.958Z,62.80
2019-02-04T17:21:58.250Z,62.90
2019-02-04T17:24:19.561Z,62.90
2019-02-04T17:26:41.054Z,62.90
2019-02-04T17:29:02.550Z,63.10
2019-02-04T17:31:24.157Z,63.10
2019-02-04T17:33:45.395Z,63.10
2019-02-04T17:36:06.810Z,63.30
2019-02-04T17:38:28.336Z,63.30
2019-02-04T17:40:49.601Z,63.20
2019-02-04T17:43:11.746Z,63.20
2019-02-04T17:45:33.080Z,63.20
2019-02-04T17:47:54.468Z,63.30
2019-02-04T17:50:17.730Z,63.50
2019-02-04T17:52:39.207Z,64.70
2019-02-04T17:55:00.528Z,64.30
2019-02-04T17:57:21.880Z,64.20
2019-02-04T17:59:43.167Z,64.00
2019-02-04T18:02:04.531Z,64.20
2019-02-04T18:04:25.881Z,64.40
2019-02-04T18:06:47.363Z,64.30
2019-02-04T18:09:08.582Z,64.50
2019-02-04T18:11:30.318Z,64.30
2019-02-04T18:13:51.900Z,65.30
2019-02-04T18:16:13.571Z,64.80
2019-02-04T18:18:35.195Z,64.80
2019-02-04T18:20:56.816Z,65.20
2019-02-04T18:23:18.419Z,65.40
2019-02-04T18:25:40.172Z,65.40
2019-02-04T18:28:01.489Z,65.60
2019-02-04T18:30:25.241Z,65.50
2019-02-04T18:32:46.847Z,65.10
2019-02-04T18:35:31.407Z,65.60
2019-02-04T18:37:53.043Z,65.80
2019-02-04T18:40:22.576Z,65.70
2019-02-04T18:42:45.022Z,65.70
2019-02-04T18:45:16.316Z,66.20
2019-02-04T18:47:38.247Z,66.00
2019-02-04T18:50:00.343Z,65.80
2019-02-04T18:52:22.428Z,65.80
2019-02-04T18:54:44.602Z,65.80
2019-02-04T18:57:08.082Z,66.00
2019-02-04T18:59:31.979Z,65.80
2019-02-04T19:02:13.586Z,66.30
2019-02-04T19:04:35.050Z,65.80
2019-02-04T19:06:56.618Z,66.00
2019-02-04T19:09:21.724Z,66.10
2019-02-04T19:11:42.682Z,66.10
2019-02-04T19:14:05.960Z,66.20
2019-02-04T19:16:27.443Z,66.00
2019-02-04T19:18:48.978Z,65.90
2019-02-04T19:21:10.771Z,66.00
2019-02-04T19:23:32.299Z,66.70
2019-02-04T19:25:54.392Z,66.40
2019-02-04T19:28:16.430Z,66.50
2019-02-04T19:30:53.513Z,66.90
2019-02-04T19:33:15.157Z,67.30
2019-02-04T19:35:37.161Z,67.50
2019-02-04T19:37:59.594Z,67.80
2019-02-04T19:40:21.129Z,68.30
2019-02-04T19:42:43.995Z,68.50
2019-02-04T19:45:13.828Z,68.90
2019-02-04T19:47:36.010Z,69.20
2019-02-04T19:49:57.787Z,69.40
2019-02-04T19:52:19.987Z,69.40
2019-02-04T19:54:42.011Z,69.90
2019-02-04T19:57:05.517Z,69.90
2019-02-04T19:59:27.979Z,69.70
2019-02-04T20:01:50.238Z,70.00
2019-02-04T20:04:12.458Z,70.10
2019-02-04T20:06:35.001Z,70.30
2019-02-04T20:08:56.750Z,70.90
2019-02-04T20:11:18.855Z,70.30
2019-02-04T20:13:41.396Z,70.70
2019-02-04T20:16:03.658Z,70.90
2019-02-04T20:18:25.873Z,70.30
2019-02-04T20:20:47.511Z,70.70
2019-02-04T20:23:09.739Z,70.30
2019-02-04T20:25:34.507Z,70.50
2019-02-04T20:27:56.854Z,70.50
2019-02-04T20:30:22.594Z,70.70
2019-02-04T20:32:44.813Z,70.40
2019-02-04T20:35:07.033Z,70.00
2019-02-04T20:37:30.187Z,70.60
2019-02-04T20:39:52.702Z,69.80
2019-02-04T20:42:15.004Z,70.00
2019-02-04T20:44:38.410Z,69.80
2019-02-04T20:47:03.463Z,69.90
2019-02-04T20:49:25.744Z,70.20
2019-02-04T20:51:48.542Z,70.20
2019-02-04T20:54:19.399Z,70.10
2019-02-04T20:56:34.506Z,70.00
2019-02-04T20:58:56.566Z,70.00
2019-02-04T21:01:19.094Z,70.30
2019-02-04T21:03:40.967Z,70.60
2019-02-04T21:06:03.120Z,70.60
2019-02-04T21:08:24.857Z,70.50
2019-02-04T21:10:48.457Z,70.50
2019-02-04T21:13:09.877Z,70.20
2019-02-04T21:15:31.511Z,70.30
2019-02-04T21:17:54.054Z,70.00
2019-02-04T21:20:18.711Z,70.00
2019-02-04T21:22:40.105Z,69.80
2019-02-04T21:25:04.827Z,69.60
2019-02-04T21:27:26.338Z,69.90
2019-02-04T21:29:47.923Z,70.00
2019-02-04T21:32:09.263Z,70.20
2019-02-04T21:34:30.675Z,70.90
2019-02-04T21:36:53.001Z,70.90
2019-02-04T21:39:15.239Z,71.10
2019-02-04T21:41:36.715Z,71.70
2019-02-04T21:44:01.988Z,71.70
2019-02-04T21:46:23.615Z,71.50
2019-02-04T21:48:45.031Z,71.80
2019-02-04T21:51:06.678Z,72.30
2019-02-04T21:53:29.923Z,72.10
2019-02-04T21:55:51.232Z,72.20
2019-02-04T21:58:12.505Z,72.30
2019-02-04T22:00:37.145Z,72.30
2019-02-04T22:02:59.487Z,72.40
2019-02-04T22:05:23.803Z,72.00
2019-02-04T22:07:45.001Z,72.20
2019-02-04T22:10:15.780Z,72.40
2019-02-04T22:12:37.088Z,72.50
2019-02-04T22:14:58.994Z,72.80
2019-02-04T22:17:20.595Z,72.60
2019-02-04T22:19:41.833Z,72.60
2019-02-04T22:22:03.146Z,72.60
2019-02-04T22:24:24.390Z,73.00
2019-02-04T22:26:45.653Z,73.10
2019-02-04T22:29:07.274Z,73.20
2019-02-04T22:31:28.606Z,73.10
2019-02-04T22:33:51.337Z,73.20
2019-02-04T22:36:13.317Z,73.50
2019-02-04T22:38:35.059Z,73.70
2019-02-04T22:40:56.484Z,73.90
2019-02-04T22:43:17.785Z,73.80
2019-02-04T22:45:39.348Z,73.80
2019-02-04T22:48:01.144Z,74.00
2019-02-04T22:50:27.665Z,74.50
2019-02-04T22:52:49.286Z,74.90
2019-02-04T22:55:10.902Z,75.00
2019-02-04T22:57:32.815Z,75.10
2019-02-04T22:59:54.716Z,75.40
2019-02-04T23:02:16.397Z,75.40
2019-02-04T23:04:38.580Z,75.30
2019-02-04T23:06:59.875Z,75.30
2019-02-04T23:09:21.183Z,75.30
2019-02-04T23:11:42.382Z,75.30
2019-02-04T23:14:03.702Z,75.50
2019-02-04T23:16:26.132Z,75.70
2019-02-04T23:18:47.445Z,75.90
2019-02-04T23:21:08.879Z,75.60
2019-02-04T23:23:30.136Z,75.70
2019-02-04T23:25:51.378Z,76.00
2019-02-04T23:28:12.935Z,75.70
2019-02-04T23:30:47.867Z,76.00
2019-02-04T23:33:09.187Z,76.10
2019-02-04T23:35:30.415Z,76.10
2019-02-04T23:37:52.035Z,76.30
2019-02-04T23:40:15.326Z,76.50
2019-02-04T23:42:37.817Z,77.00
2019-02-04T23:44:59.515Z,76.70
2019-02-04T23:47:21.252Z,76.90
2019-02-04T23:49:42.818Z,77.20
2019-02-04T23:52:04.763Z,77.50
2019-02-04T23:54:26.067Z,78.00
2019-02-04T23:56:47.285Z,78.20
2019-02-04T23:59:08.624Z,78.00
